sensor_id;sensor_type;location;lat;lon;timestamp;pressure;altitude;pressure_sealevel;temperature;humidity
76128;BME280;64873;50.102;14.434;2023-06-22T00:01:56;99597.41;;;20.32;82.44
76128;BME280;64873;50.102;14.434;2023-06-22T00:04:21;99596.59;;;20.41;82.29
76128;BME280;64873;50.102;14.434;2023-06-22T00:06:47;99594.97;;;20.40;82.42
76128;BME280;64873;50.102;14.434;2023-06-22T00:09:12;99599.31;;;20.36;82.80
76128;BME280;64873;50.102;14.434;2023-06-22T00:11:37;99602.31;;;20.35;82.92
76128;BME280;64873;50.102;14.434;2023-06-22T00:14:04;99600.41;;;20.45;81.85
76128;BME280;64873;50.102;14.434;2023-06-22T00:16:31;99605.31;;;20.48;81.69
76128;BME280;64873;50.102;14.434;2023-06-22T00:18:56;99611.03;;;20.47;81.79
76128;BME280;64873;50.102;14.434;2023-06-22T00:21:26;99604.75;;;20.36;82.14
76128;BME280;64873;50.102;14.434;2023-06-22T00:23:51;99605.84;;;20.30;82.33
76128;BME280;64873;50.102;14.434;2023-06-22T00:26:17;99619.41;;;20.25;82.59
76128;BME280;64873;50.102;14.434;2023-06-22T00:28:42;99611.28;;;20.25;82.57
76128;BME280;64873;50.102;14.434;2023-06-22T00:31:08;99610.72;;;20.28;82.39
76128;BME280;64873;50.102;14.434;2023-06-22T00:33:33;99604.19;;;20.34;81.70
76128;BME280;64873;50.102;14.434;2023-06-22T00:35:59;99618.06;;;20.17;82.84
76128;BME280;64873;50.102;14.434;2023-06-22T00:38:24;99613.72;;;20.11;83.43
76128;BME280;64873;50.102;14.434;2023-06-22T00:40:50;99610.75;;;20.23;82.87
76128;BME280;64873;50.102;14.434;2023-06-22T00:43:15;99618.31;;;20.21;82.87
76128;BME280;64873;50.102;14.434;2023-06-22T00:45:40;99602.03;;;20.31;82.44
76128;BME280;64873;50.102;14.434;2023-06-22T00:48:06;99608.03;;;20.23;82.23
76128;BME280;64873;50.102;14.434;2023-06-22T00:50:33;99604.22;;;20.09;82.98
76128;BME280;64873;50.102;14.434;2023-06-22T00:53:01;99607.47;;;20.06;83.06
76128;BME280;64873;50.102;14.434;2023-06-22T00:55:51;99602.84;;;20.01;83.38
76128;BME280;64873;50.102;14.434;2023-06-22T00:58:18;99599.88;;;20.13;83.02
76128;BME280;64873;50.102;14.434;2023-06-22T01:00:47;99602.06;;;20.06;83.51
76128;BME280;64873;50.102;14.434;2023-06-22T01:03:13;99592.81;;;20.37;82.20
76128;BME280;64873;50.102;14.434;2023-06-22T01:05:39;99587.66;;;20.26;82.79
76128;BME280;64873;50.102;14.434;2023-06-22T01:13:37;99580.31;;;19.80;84.62
76128;BME280;64873;50.102;14.434;2023-06-22T01:18:36;99576.50;;;19.81;84.39
76128;BME280;64873;50.102;14.434;2023-06-22T01:21:06;99570.81;;;19.73;84.95
76128;BME280;64873;50.102;14.434;2023-06-22T01:28:57;99591.16;;;19.70;84.88
76128;BME280;64873;50.102;14.434;2023-06-22T01:31:26;99580.03;;;19.66;84.88
76128;BME280;64873;50.102;14.434;2023-06-22T01:33:54;99574.28;;;19.53;85.73
76128;BME280;64873;50.102;14.434;2023-06-22T01:36:22;99576.50;;;19.81;84.60
76128;BME280;64873;50.102;14.434;2023-06-22T01:38:49;99573.25;;;19.79;84.55
76128;BME280;64873;50.102;14.434;2023-06-22T01:41:16;99577.34;;;19.72;84.72
76128;BME280;64873;50.102;14.434;2023-06-22T01:43:43;99573.25;;;19.69;84.63
76128;BME280;64873;50.102;14.434;2023-06-22T01:46:09;99582.41;;;19.58;85.42
76128;BME280;64873;50.102;14.434;2023-06-22T01:48:35;99567.31;;;19.72;85.02
76128;BME280;64873;50.102;14.434;2023-06-22T01:51:02;99570.50;;;19.54;85.18
76128;BME280;64873;50.102;14.434;2023-06-22T01:53:27;99583.47;;;19.41;85.87
76128;BME280;64873;50.102;14.434;2023-06-22T01:55:53;99577.59;;;19.60;85.06
76128;BME280;64873;50.102;14.434;2023-06-22T01:58:26;99580.78;;;19.57;85.63
76128;BME280;64873;50.102;14.434;2023-06-22T02:01:02;99582.41;;;19.42;85.93
76128;BME280;64873;50.102;14.434;2023-06-22T02:03:34;99588.03;;;19.26;86.67
76128;BME280;64873;50.102;14.434;2023-06-22T02:06:08;99596.47;;;19.29;87.01
76128;BME280;64873;50.102;14.434;2023-06-22T02:08:40;99596.44;;;19.24;87.13
76128;BME280;64873;50.102;14.434;2023-06-22T02:11:08;99588.84;;;19.26;86.89
76128;BME280;64873;50.102;14.434;2023-06-22T02:13:36;99591.25;;;19.23;87.26
76128;BME280;64873;50.102;14.434;2023-06-22T02:16:02;99589.38;;;19.28;87.34
76128;BME280;64873;50.102;14.434;2023-06-22T02:18:27;99602.97;;;19.33;86.81
76128;BME280;64873;50.102;14.434;2023-06-22T02:20:53;99600.78;;;19.25;87.20
76128;BME280;64873;50.102;14.434;2023-06-22T02:23:18;99598.63;;;19.37;86.50
76128;BME280;64873;50.102;14.434;2023-06-22T02:25:44;99593.19;;;19.27;87.14
76128;BME280;64873;50.102;14.434;2023-06-22T02:28:09;99602.44;;;19.36;86.22
76128;BME280;64873;50.102;14.434;2023-06-22T02:30:35;99596.44;;;19.34;86.41
76128;BME280;64873;50.102;14.434;2023-06-22T02:33:00;99613.53;;;19.40;86.12
76128;BME280;64873;50.102;14.434;2023-06-22T02:35:29;99599.75;;;19.41;86.16
76128;BME280;64873;50.102;14.434;2023-06-22T02:38:01;99606.75;;;19.32;86.25
76128;BME280;64873;50.102;14.434;2023-06-22T02:40:28;99602.97;;;19.33;86.23
76128;BME280;64873;50.102;14.434;2023-06-22T02:42:54;99607.28;;;19.29;86.13
76128;BME280;64873;50.102;14.434;2023-06-22T02:45:20;99597.53;;;19.33;85.99
76128;BME280;64873;50.102;14.434;2023-06-22T02:47:45;99607.53;;;19.23;86.28
76128;BME280;64873;50.102;14.434;2023-06-22T02:50:13;99593.44;;;19.21;86.41
76128;BME280;64873;50.102;14.434;2023-06-22T02:52:39;99605.31;;;19.14;86.76
76128;BME280;64873;50.102;14.434;2023-06-22T02:55:05;99604.81;;;19.17;86.96
76128;BME280;64873;50.102;14.434;2023-06-22T02:57:32;99593.69;;;19.14;87.06
76128;BME280;64873;50.102;14.434;2023-06-22T02:59:57;99595.28;;;19.10;87.13
76128;BME280;64873;50.102;14.434;2023-06-22T03:02:23;99594.75;;;19.08;86.88
76128;BME280;64873;50.102;14.434;2023-06-22T03:04:48;99589.84;;;19.10;87.17
76128;BME280;64873;50.102;14.434;2023-06-22T03:07:14;99596.06;;;19.05;86.74
76128;BME280;64873;50.102;14.434;2023-06-22T03:09:40;99587.41;;;19.03;86.81
76128;BME280;64873;50.102;14.434;2023-06-22T03:12:07;99584.41;;;19.05;86.81
76128;BME280;64873;50.102;14.434;2023-06-22T03:14:33;99593.06;;;18.97;87.23
76128;BME280;64873;50.102;14.434;2023-06-22T03:16:58;99597.44;;;19.03;86.97
76128;BME280;64873;50.102;14.434;2023-06-22T03:19:28;99594.19;;;19.06;87.03
76128;BME280;64873;50.102;14.434;2023-06-22T03:21:55;99603.38;;;19.05;86.92
76128;BME280;64873;50.102;14.434;2023-06-22T03:24:20;99605.63;;;19.18;86.07
76128;BME280;64873;50.102;14.434;2023-06-22T03:26:46;99606.13;;;19.15;85.76
76128;BME280;64873;50.102;14.434;2023-06-22T03:29:12;99609.13;;;19.13;86.04
76128;BME280;64873;50.102;14.434;2023-06-22T03:31:37;99614.81;;;19.17;85.47
76128;BME280;64873;50.102;14.434;2023-06-22T03:34:03;99606.69;;;19.17;85.30
76128;BME280;64873;50.102;14.434;2023-06-22T03:36:28;99609.38;;;19.17;85.43
76128;BME280;64873;50.102;14.434;2023-06-22T03:38:54;99605.06;;;19.21;84.60
76128;BME280;64873;50.102;14.434;2023-06-22T03:41:19;99609.72;;;19.26;84.79
76128;BME280;64873;50.102;14.434;2023-06-22T03:43:45;99613.78;;;19.23;84.74
76128;BME280;64873;50.102;14.434;2023-06-22T03:46:10;99611.06;;;19.28;84.86
76128;BME280;64873;50.102;14.434;2023-06-22T03:48:36;99600.81;;;19.40;83.88
76128;BME280;64873;50.102;14.434;2023-06-22T03:51:02;99599.16;;;19.34;83.96
76128;BME280;64873;50.102;14.434;2023-06-22T03:53:28;99602.19;;;19.43;83.81
76128;BME280;64873;50.102;14.434;2023-06-22T03:55:54;99600.03;;;19.50;83.67
76128;BME280;64873;50.102;14.434;2023-06-22T03:58:20;99607.88;;;19.41;83.97
76128;BME280;64873;50.102;14.434;2023-06-22T04:00:47;99610.03;;;19.39;84.26
76128;BME280;64873;50.102;14.434;2023-06-22T04:03:13;99596.13;;;19.21;84.77
76128;BME280;64873;50.102;14.434;2023-06-22T04:05:39;99594.28;;;19.31;84.64
76128;BME280;64873;50.102;14.434;2023-06-22T04:08:05;99600.25;;;19.38;84.29
76128;BME280;64873;50.102;14.434;2023-06-22T04:10:30;99593.25;;;19.42;83.74
76128;BME280;64873;50.102;14.434;2023-06-22T04:12:56;99585.63;;;19.39;83.92
76128;BME280;64873;50.102;14.434;2023-06-22T04:15:21;99589.41;;;19.38;83.95
76128;BME280;64873;50.102;14.434;2023-06-22T04:17:47;99584.00;;;19.38;84.06
76128;BME280;64873;50.102;14.434;2023-06-22T04:20:12;99582.28;;;19.17;84.65
76128;BME280;64873;50.102;14.434;2023-06-22T04:22:38;99579.03;;;19.15;85.15
76128;BME280;64873;50.102;14.434;2023-06-22T04:25:05;99575.56;;;19.20;85.01
76128;BME280;64873;50.102;14.434;2023-06-22T04:27:33;99581.25;;;19.23;84.91
76128;BME280;64873;50.102;14.434;2023-06-22T04:30:06;99583.47;;;19.41;84.26
76128;BME280;64873;50.102;14.434;2023-06-22T04:32:32;99579.34;;;19.29;84.48
76128;BME280;64873;50.102;14.434;2023-06-22T04:34:57;99586.69;;;19.23;85.01
76128;BME280;64873;50.102;14.434;2023-06-22T04:37:23;99579.66;;;19.32;84.85
76128;BME280;64873;50.102;14.434;2023-06-22T04:39:49;99588.34;;;19.44;84.46
76128;BME280;64873;50.102;14.434;2023-06-22T04:42:15;99595.97;;;19.53;84.06
76128;BME280;64873;50.102;14.434;2023-06-22T04:44:40;99596.25;;;19.56;84.13
76128;BME280;64873;50.102;14.434;2023-06-22T04:47:07;99602.81;;;19.76;83.33
76128;BME280;64873;50.102;14.434;2023-06-22T04:49:34;99593.88;;;19.85;82.85
76128;BME280;64873;50.102;14.434;2023-06-22T04:52:05;99599.59;;;19.89;82.43
76128;BME280;64873;50.102;14.434;2023-06-22T04:54:32;99608.81;;;19.78;82.93
76128;BME280;64873;50.102;14.434;2023-06-22T04:57:04;99602.03;;;19.95;82.31
76128;BME280;64873;50.102;14.434;2023-06-22T04:59:31;99602.03;;;20.31;80.35
76128;BME280;64873;50.102;14.434;2023-06-22T05:01:58;99598.78;;;20.55;79.87
76128;BME280;64873;50.102;14.434;2023-06-22T05:04:24;99594.97;;;20.61;80.01
76128;BME280;64873;50.102;14.434;2023-06-22T05:06:51;99600.16;;;20.47;80.66
76128;BME280;64873;50.102;14.434;2023-06-22T05:09:17;99600.94;;;20.63;79.83
76128;BME280;64873;50.102;14.434;2023-06-22T05:11:43;99617.19;;;20.78;79.00
76128;BME280;64873;50.102;14.434;2023-06-22T05:14:08;99604.16;;;20.80;78.89
76128;BME280;64873;50.102;14.434;2023-06-22T05:16:34;99616.63;;;20.81;79.09
76128;BME280;64873;50.102;14.434;2023-06-22T05:18:59;99623.72;;;20.82;78.56
76128;BME280;64873;50.102;14.434;2023-06-22T05:21:26;99621.00;;;20.82;79.16
76128;BME280;64873;50.102;14.434;2023-06-22T05:23:53;99625.25;;;21.03;78.28
76128;BME280;64873;50.102;14.434;2023-06-22T05:26:19;99630.69;;;21.03;78.59
76128;BME280;64873;50.102;14.434;2023-06-22T05:28:46;99633.97;;;21.06;78.48
76128;BME280;64873;50.102;14.434;2023-06-22T05:31:15;99633.16;;;21.05;78.20
76128;BME280;64873;50.102;14.434;2023-06-22T05:33:41;99637.19;;;21.18;78.45
76128;BME280;64873;50.102;14.434;2023-06-22T05:36:07;99639.91;;;21.23;77.81
76128;BME280;64873;50.102;14.434;2023-06-22T05:38:33;99643.63;;;21.42;77.08
76128;BME280;64873;50.102;14.434;2023-06-22T05:40:59;99650.69;;;21.43;77.23
76128;BME280;64873;50.102;14.434;2023-06-22T05:43:24;99663.44;;;21.53;76.85
76128;BME280;64873;50.102;14.434;2023-06-22T05:45:50;99668.59;;;21.54;76.75
76128;BME280;64873;50.102;14.434;2023-06-22T05:48:15;99668.63;;;21.44;77.15
76128;BME280;64873;50.102;14.434;2023-06-22T05:50:40;99662.09;;;21.50;77.09
76128;BME280;64873;50.102;14.434;2023-06-22T05:53:06;99655.47;;;21.67;75.63
76128;BME280;64873;50.102;14.434;2023-06-22T05:55:32;99654.75;;;21.51;75.85
76128;BME280;64873;50.102;14.434;2023-06-22T05:57:58;99654.88;;;21.75;75.53
76128;BME280;64873;50.102;14.434;2023-06-22T06:00:23;99653.16;;;21.94;73.61
76128;BME280;64873;50.102;14.434;2023-06-22T06:02:49;99658.03;;;21.92;74.22
76128;BME280;64873;50.102;14.434;2023-06-22T06:05:15;99662.28;;;22.14;73.61
76128;BME280;64873;50.102;14.434;2023-06-22T06:07:42;99653.41;;;21.48;75.51
76128;BME280;64873;50.102;14.434;2023-06-22T06:10:08;99654.69;;;22.11;72.99
76128;BME280;64873;50.102;14.434;2023-06-22T06:12:33;99658.59;;;22.33;72.17
76128;BME280;64873;50.102;14.434;2023-06-22T06:14:59;99652.50;;;22.13;72.50
76128;BME280;64873;50.102;14.434;2023-06-22T06:17:24;99663.22;;;22.33;72.10
76128;BME280;64873;50.102;14.434;2023-06-22T06:19:49;99658.09;;;22.26;72.29
76128;BME280;64873;50.102;14.434;2023-06-22T06:22:15;99664.34;;;22.27;72.31
76128;BME280;64873;50.102;14.434;2023-06-22T06:24:40;99655.78;;;22.73;70.84
76128;BME280;64873;50.102;14.434;2023-06-22T06:27:06;99655.69;;;22.83;70.20
76128;BME280;64873;50.102;14.434;2023-06-22T06:29:32;99653.38;;;23.00;69.56
76128;BME280;64873;50.102;14.434;2023-06-22T06:31:57;99657.06;;;23.09;69.55
76128;BME280;64873;50.102;14.434;2023-06-22T06:34:23;99655.38;;;23.13;69.13
76128;BME280;64873;50.102;14.434;2023-06-22T06:36:48;99652.38;;;22.91;69.65
76128;BME280;64873;50.102;14.434;2023-06-22T06:39:14;99651.50;;;23.20;68.91
76128;BME280;64873;50.102;14.434;2023-06-22T06:41:39;99645.59;;;23.55;67.46
76128;BME280;64873;50.102;14.434;2023-06-22T06:44:04;99640.00;;;23.47;68.02
76128;BME280;64873;50.102;14.434;2023-06-22T06:46:30;99646.31;;;23.42;68.46
76128;BME280;64873;50.102;14.434;2023-06-22T06:48:55;99647.31;;;23.51;68.18
76128;BME280;64873;50.102;14.434;2023-06-22T06:51:21;99646.63;;;23.59;68.22
76128;BME280;64873;50.102;14.434;2023-06-22T06:53:46;99646.59;;;23.83;66.79
76128;BME280;64873;50.102;14.434;2023-06-22T06:56:11;99637.47;;;23.50;67.10
76128;BME280;64873;50.102;14.434;2023-06-22T06:58:40;99635.16;;;23.62;67.15
76128;BME280;64873;50.102;14.434;2023-06-22T07:01:05;99633.31;;;23.58;66.43
76128;BME280;64873;50.102;14.434;2023-06-22T07:03:31;99627.81;;;23.63;66.71
76128;BME280;64873;50.102;14.434;2023-06-22T07:05:58;99627.16;;;24.23;64.64
76128;BME280;64873;50.102;14.434;2023-06-22T07:08:23;99622.56;;;24.37;64.21
76128;BME280;64873;50.102;14.434;2023-06-22T07:10:49;99624.97;;;24.06;65.14
76128;BME280;64873;50.102;14.434;2023-06-22T07:13:14;99617.25;;;24.27;64.25
76128;BME280;64873;50.102;14.434;2023-06-22T07:15:39;99610.25;;;23.88;65.28
76128;BME280;64873;50.102;14.434;2023-06-22T07:18:05;99606.41;;;24.40;63.93
76128;BME280;64873;50.102;14.434;2023-06-22T07:20:31;99602.78;;;24.59;63.41
76128;BME280;64873;50.102;14.434;2023-06-22T07:22:56;99602.19;;;24.62;63.48
76128;BME280;64873;50.102;14.434;2023-06-22T07:25:23;99601.31;;;24.34;64.65
76128;BME280;64873;50.102;14.434;2023-06-22T07:28:01;99590.66;;;24.79;63.87
76128;BME280;64873;50.102;14.434;2023-06-22T07:30:27;99592.28;;;24.80;64.05
76128;BME280;64873;50.102;14.434;2023-06-22T07:32:52;99589.97;;;25.00;63.73
76128;BME280;64873;50.102;14.434;2023-06-22T07:35:18;99591.75;;;24.50;65.03
76128;BME280;64873;50.102;14.434;2023-06-22T07:37:44;99591.28;;;24.76;64.03
76128;BME280;64873;50.102;14.434;2023-06-22T07:40:09;99590.50;;;25.16;63.21
76128;BME280;64873;50.102;14.434;2023-06-22T07:42:35;99586.44;;;24.86;64.37
76128;BME280;64873;50.102;14.434;2023-06-22T07:45:04;99583.97;;;24.85;64.46
76128;BME280;64873;50.102;14.434;2023-06-22T07:47:29;99583.69;;;24.86;64.31
76128;BME280;64873;50.102;14.434;2023-06-22T07:49:58;99579.94;;;24.96;64.54
76128;BME280;64873;50.102;14.434;2023-06-22T07:52:26;99570.44;;;25.07;63.35
76128;BME280;64873;50.102;14.434;2023-06-22T07:54:52;99566.38;;;25.05;63.76
76128;BME280;64873;50.102;14.434;2023-06-22T07:57:17;99571.94;;;25.13;62.30
76128;BME280;64873;50.102;14.434;2023-06-22T07:59:43;99565.31;;;25.42;61.12
76128;BME280;64873;50.102;14.434;2023-06-22T08:02:09;99554.38;;;25.42;60.61
76128;BME280;64873;50.102;14.434;2023-06-22T08:04:35;99556.63;;;25.40;60.88
76128;BME280;64873;50.102;14.434;2023-06-22T08:07:01;99555.97;;;25.43;60.73
76128;BME280;64873;50.102;14.434;2023-06-22T08:09:32;99541.31;;;25.61;60.33
76128;BME280;64873;50.102;14.434;2023-06-22T08:11:58;99541.63;;;25.60;60.44
76128;BME280;64873;50.102;14.434;2023-06-22T08:14:27;99548.09;;;25.41;60.64
76128;BME280;64873;50.102;14.434;2023-06-22T08:16:52;99540.16;;;25.53;60.61
76128;BME280;64873;50.102;14.434;2023-06-22T08:19:18;99547.13;;;25.60;60.47
76128;BME280;64873;50.102;14.434;2023-06-22T08:21:44;99536.66;;;25.75;60.28
76128;BME280;64873;50.102;14.434;2023-06-22T08:24:09;99534.88;;;25.79;60.84
76128;BME280;64873;50.102;14.434;2023-06-22T08:26:35;99540.06;;;25.81;60.07
76128;BME280;64873;50.102;14.434;2023-06-22T08:29:03;99535.56;;;25.85;59.57
76128;BME280;64873;50.102;14.434;2023-06-22T08:31:28;99533.28;;;26.01;58.99
76128;BME280;64873;50.102;14.434;2023-06-22T08:33:54;99524.47;;;26.13;58.99
76128;BME280;64873;50.102;14.434;2023-06-22T08:36:19;99525.69;;;25.98;59.28
76128;BME280;64873;50.102;14.434;2023-06-22T08:38:45;99522.19;;;25.84;59.14
76128;BME280;64873;50.102;14.434;2023-06-22T08:41:16;99512.06;;;25.84;59.50
76128;BME280;64873;50.102;14.434;2023-06-22T08:43:43;99521.59;;;26.18;58.70
76128;BME280;64873;50.102;14.434;2023-06-22T08:46:09;99523.19;;;26.10;58.65
76128;BME280;64873;50.102;14.434;2023-06-22T08:48:35;99517.97;;;26.31;57.98
76128;BME280;64873;50.102;14.434;2023-06-22T08:51:00;99522.69;;;26.70;56.32
76128;BME280;64873;50.102;14.434;2023-06-22T08:53:25;99525.84;;;26.55;56.76
76128;BME280;64873;50.102;14.434;2023-06-22T08:55:51;99514.25;;;26.58;56.68
76128;BME280;64873;50.102;14.434;2023-06-22T08:58:16;99513.91;;;26.51;56.69
76128;BME280;64873;50.102;14.434;2023-06-22T09:00:43;99517.94;;;26.53;56.60
76128;BME280;64873;50.102;14.434;2023-06-22T09:03:08;99520.06;;;26.65;55.77
76128;BME280;64873;50.102;14.434;2023-06-22T09:05:34;99518.06;;;26.48;56.09
76128;BME280;64873;50.102;14.434;2023-06-22T09:07:59;99520.41;;;26.72;55.30
76128;BME280;64873;50.102;14.434;2023-06-22T09:10:25;99516.47;;;26.56;55.97
76128;BME280;64873;50.102;14.434;2023-06-22T09:12:51;99513.94;;;26.60;55.87
76128;BME280;64873;50.102;14.434;2023-06-22T09:15:16;99516.78;;;26.86;54.98
76128;BME280;64873;50.102;14.434;2023-06-22T09:17:41;99515.28;;;26.79;54.70
76128;BME280;64873;50.102;14.434;2023-06-22T09:20:07;99506.72;;;26.72;54.89
76128;BME280;64873;50.102;14.434;2023-06-22T09:22:35;99500.78;;;26.88;54.73
76128;BME280;64873;50.102;14.434;2023-06-22T09:25:01;99506.94;;;27.02;54.31
76128;BME280;64873;50.102;14.434;2023-06-22T09:27:27;99505.88;;;27.12;54.37
76128;BME280;64873;50.102;14.434;2023-06-22T09:29:53;99503.53;;;26.96;54.71
76128;BME280;64873;50.102;14.434;2023-06-22T09:32:18;99500.00;;;26.96;54.28
76128;BME280;64873;50.102;14.434;2023-06-22T09:34:44;99497.31;;;27.13;54.17
76128;BME280;64873;50.102;14.434;2023-06-22T09:37:09;99491.50;;;27.15;54.47
76128;BME280;64873;50.102;14.434;2023-06-22T09:39:35;99487.06;;;26.96;54.71
76128;BME280;64873;50.102;14.434;2023-06-22T09:42:02;99482.63;;;27.18;54.44
76128;BME280;64873;50.102;14.434;2023-06-22T09:44:27;99473.59;;;27.34;54.13
76128;BME280;64873;50.102;14.434;2023-06-22T09:46:52;99486.81;;;27.58;53.49
76128;BME280;64873;50.102;14.434;2023-06-22T09:49:18;99490.22;;;27.81;52.77
76128;BME280;64873;50.102;14.434;2023-06-22T09:51:43;99487.63;;;27.59;53.01
76128;BME280;64873;50.102;14.434;2023-06-22T09:54:09;99480.03;;;27.64;52.67
76128;BME280;64873;50.102;14.434;2023-06-22T09:56:34;99477.44;;;27.68;53.28
76128;BME280;64873;50.102;14.434;2023-06-22T09:58:59;99477.63;;;27.63;52.92
76128;BME280;64873;50.102;14.434;2023-06-22T10:01:25;99475.19;;;27.53;53.30
76128;BME280;64873;50.102;14.434;2023-06-22T10:03:52;99465.84;;;27.45;53.32
76128;BME280;64873;50.102;14.434;2023-06-22T10:06:21;99465.97;;;27.49;53.46
76128;BME280;64873;50.102;14.434;2023-06-22T10:08:47;99463.72;;;27.59;52.81
76128;BME280;64873;50.102;14.434;2023-06-22T10:11:13;99462.91;;;27.59;53.31
76128;BME280;64873;50.102;14.434;2023-06-22T10:13:39;99467.59;;;27.50;53.07
76128;BME280;64873;50.102;14.434;2023-06-22T10:16:04;99460.16;;;27.59;52.76
76128;BME280;64873;50.102;14.434;2023-06-22T10:18:30;99464.69;;;27.55;52.27
76128;BME280;64873;50.102;14.434;2023-06-22T10:20:55;99463.09;;;27.45;52.10
76128;BME280;64873;50.102;14.434;2023-06-22T10:23:21;99468.91;;;27.26;52.91
76128;BME280;64873;50.102;14.434;2023-06-22T10:25:46;99455.84;;;27.23;52.73
76128;BME280;64873;50.102;14.434;2023-06-22T10:28:12;99456.97;;;27.40;52.39
76128;BME280;64873;50.102;14.434;2023-06-22T10:30:39;99465.66;;;27.76;51.87
76128;BME280;64873;50.102;14.434;2023-06-22T10:33:07;99465.81;;;27.80;52.30
76128;BME280;64873;50.102;14.434;2023-06-22T10:35:32;99464.25;;;27.44;52.88
76128;BME280;64873;50.102;14.434;2023-06-22T10:37:57;99461.94;;;27.55;52.60
76128;BME280;64873;50.102;14.434;2023-06-22T10:40:23;99460.47;;;27.66;52.30
76128;BME280;64873;50.102;14.434;2023-06-22T10:42:48;99447.72;;;27.61;52.32
76128;BME280;64873;50.102;14.434;2023-06-22T10:45:15;99444.00;;;27.83;52.03
76128;BME280;64873;50.102;14.434;2023-06-22T10:47:41;99445.13;;;27.91;51.93
76128;BME280;64873;50.102;14.434;2023-06-22T10:50:07;99442.72;;;28.28;50.86
76128;BME280;64873;50.102;14.434;2023-06-22T10:52:33;99446.06;;;27.95;51.82
76128;BME280;64873;50.102;14.434;2023-06-22T10:54:58;99452.72;;;27.77;52.09
76128;BME280;64873;50.102;14.434;2023-06-22T10:57:24;99448.38;;;27.76;52.39
76128;BME280;64873;50.102;14.434;2023-06-22T10:59:49;99424.34;;;27.47;53.07
76128;BME280;64873;50.102;14.434;2023-06-22T11:02:15;99428.72;;;28.12;51.12
76128;BME280;64873;50.102;14.434;2023-06-22T11:04:40;99427.28;;;28.06;51.62
76128;BME280;64873;50.102;14.434;2023-06-22T11:07:05;99424.47;;;28.23;50.57
76128;BME280;64873;50.102;14.434;2023-06-22T11:09:31;99422.84;;;28.22;50.52
76128;BME280;64873;50.102;14.434;2023-06-22T11:11:57;99413.88;;;28.04;51.13
76128;BME280;64873;50.102;14.434;2023-06-22T11:14:24;99414.97;;;28.12;51.21
76128;BME280;64873;50.102;14.434;2023-06-22T11:16:49;99421.03;;;28.35;50.81
76128;BME280;64873;50.102;14.434;2023-06-22T11:19:15;99414.09;;;28.20;50.65
76128;BME280;64873;50.102;14.434;2023-06-22T11:21:40;99413.28;;;28.28;50.06
76128;BME280;64873;50.102;14.434;2023-06-22T11:24:06;99408.34;;;28.51;50.17
76128;BME280;64873;50.102;14.434;2023-06-22T11:26:31;99406.63;;;28.38;50.48
76128;BME280;64873;50.102;14.434;2023-06-22T11:28:57;99402.47;;;28.61;49.91
76128;BME280;64873;50.102;14.434;2023-06-22T11:31:23;99404.66;;;28.00;51.37
76128;BME280;64873;50.102;14.434;2023-06-22T11:33:48;99401.44;;;28.36;50.70
76128;BME280;64873;50.102;14.434;2023-06-22T11:36:14;99400.38;;;28.20;50.94
76128;BME280;64873;50.102;14.434;2023-06-22T11:38:41;99399.44;;;28.16;51.42
76128;BME280;64873;50.102;14.434;2023-06-22T11:41:07;99383.03;;;28.28;50.70
76128;BME280;64873;50.102;14.434;2023-06-22T11:43:32;99367.34;;;27.99;52.02
76128;BME280;64873;50.102;14.434;2023-06-22T11:45:59;99377.91;;;28.18;51.31
76128;BME280;64873;50.102;14.434;2023-06-22T11:48:24;99361.09;;;28.49;50.50
76128;BME280;64873;50.102;14.434;2023-06-22T11:50:50;99379.16;;;28.59;50.83
76128;BME280;64873;50.102;14.434;2023-06-22T11:53:15;99375.28;;;28.81;49.75
76128;BME280;64873;50.102;14.434;2023-06-22T11:55:43;99364.69;;;28.71;49.82
76128;BME280;64873;50.102;14.434;2023-06-22T11:58:08;99371.19;;;28.66;50.10
76128;BME280;64873;50.102;14.434;2023-06-22T12:00:34;99369.03;;;28.72;50.34
76128;BME280;64873;50.102;14.434;2023-06-22T12:02:59;99379.50;;;28.78;49.90
76128;BME280;64873;50.102;14.434;2023-06-22T12:05:25;99373.19;;;29.19;49.66
76128;BME280;64873;50.102;14.434;2023-06-22T12:07:53;99362.19;;;29.19;49.19
76128;BME280;64873;50.102;14.434;2023-06-22T12:10:18;99361.22;;;29.36;49.13
76128;BME280;64873;50.102;14.434;2023-06-22T12:12:44;99362.94;;;29.41;48.76
76128;BME280;64873;50.102;14.434;2023-06-22T12:15:10;99357.13;;;29.09;49.19
76128;BME280;64873;50.102;14.434;2023-06-22T12:17:35;99361.13;;;29.12;49.35
76128;BME280;64873;50.102;14.434;2023-06-22T12:20:01;99358.31;;;29.20;48.83
76128;BME280;64873;50.102;14.434;2023-06-22T12:22:31;99354.59;;;29.50;47.84
76128;BME280;64873;50.102;14.434;2023-06-22T12:24:56;99354.22;;;29.39;48.30
76128;BME280;64873;50.102;14.434;2023-06-22T12:27:22;99357.09;;;28.88;48.88
76128;BME280;64873;50.102;14.434;2023-06-22T12:29:47;99349.88;;;29.05;48.84
76128;BME280;64873;50.102;14.434;2023-06-22T12:32:14;99340.53;;;29.30;48.50
76128;BME280;64873;50.102;14.434;2023-06-22T12:34:41;99336.53;;;29.28;48.90
76128;BME280;64873;50.102;14.434;2023-06-22T12:37:07;99330.22;;;29.27;48.60
76128;BME280;64873;50.102;14.434;2023-06-22T12:39:32;99315.88;;;29.21;48.95
76128;BME280;64873;50.102;14.434;2023-06-22T12:41:58;99325.44;;;29.48;48.33
76128;BME280;64873;50.102;14.434;2023-06-22T12:44:23;99318.06;;;29.73;47.77
76128;BME280;64873;50.102;14.434;2023-06-22T12:46:48;99316.41;;;29.60;47.78
76128;BME280;64873;50.102;14.434;2023-06-22T12:49:14;99310.56;;;29.50;48.33
76128;BME280;64873;50.102;14.434;2023-06-22T12:51:40;99309.22;;;29.56;48.09
76128;BME280;64873;50.102;14.434;2023-06-22T12:54:07;99310.91;;;29.60;48.23
76128;BME280;64873;50.102;14.434;2023-06-22T12:56:33;99301.63;;;29.65;48.08
76128;BME280;64873;50.102;14.434;2023-06-22T12:58:58;99303.81;;;30.08;47.10